sensor_id;sensor_type;location;lat;lon;timestamp;P1;durP1;ratioP1;P2;durP2;ratioP2
6590;SDS011;3331;47.978;7.662;2022-08-25T11:20:48;2.67;;;2.40;;
6590;SDS011;3331;47.978;7.662;2022-08-25T11:42:46;1.47;;;1.40;;
6590;SDS011;3331;47.978;7.662;2022-08-25T11:49:21;3.20;;;2.37;;
6590;SDS011;3331;47.978;7.662;2022-08-25T11:51:56;2.67;;;1.83;;
6590;SDS011;3331;47.978;7.662;2022-08-25T13:25:04;2.80;;;1.83;;
6590;SDS011;3331;47.978;7.662;2022-08-25T13:30:32;2.27;;;2.07;;
6590;SDS011;3331;47.978;7.662;2022-08-25T13:33:14;1.80;;;1.70;;
6590;SDS011;3331;47.978;7.662;2022-08-25T13:35:44;1.70;;;1.60;;
6590;SDS011;3331;47.978;7.662;2022-08-25T13:38:12;4.80;;;2.00;;
6590;SDS011;3331;47.978;7.662;2022-08-25T13:40:39;1.90;;;1.70;;
6590;SDS011;3331;47.978;7.662;2022-08-25T13:43:06;4.80;;;1.60;;
6590;SDS011;3331;47.978;7.662;2022-08-25T13:45:35;1.70;;;1.60;;
6590;SDS011;3331;47.978;7.662;2022-08-25T13:48:02;3.53;;;1.70;;
6590;SDS011;3331;47.978;7.662;2022-08-25T13:50:30;3.80;;;1.60;;
6590;SDS011;3331;47.978;7.662;2022-08-25T13:52:58;8.80;;;2.00;;
6590;SDS011;3331;47.978;7.662;2022-08-25T13:55:26;3.37;;;1.53;;
6590;SDS011;3331;47.978;7.662;2022-08-25T13:57:55;1.03;;;1.00;;
6590;SDS011;3331;47.978;7.662;2022-08-25T14:00:26;6.07;;;1.67;;
6590;SDS011;3331;47.978;7.662;2022-08-25T14:02:53;1.67;;;1.57;;
6590;SDS011;3331;47.978;7.662;2022-08-25T14:05:28;8.07;;;2.10;;
6590;SDS011;3331;47.978;7.662;2022-08-25T14:07:56;1.63;;;1.50;;
6590;SDS011;3331;47.978;7.662;2022-08-25T14:10:31;2.53;;;1.50;;
6590;SDS011;3331;47.978;7.662;2022-08-25T14:13:07;1.60;;;1.50;;
6590;SDS011;3331;47.978;7.662;2022-08-25T14:15:34;2.60;;;1.70;;
6590;SDS011;3331;47.978;7.662;2022-08-25T14:18:01;2.60;;;1.67;;
6590;SDS011;3331;47.978;7.662;2022-08-25T14:20:29;1.70;;;1.50;;
6590;SDS011;3331;47.978;7.662;2022-08-25T14:22:56;1.40;;;1.30;;
6590;SDS011;3331;47.978;7.662;2022-08-25T14:25:23;1.50;;;1.40;;
6590;SDS011;3331;47.978;7.662;2022-08-25T14:27:53;1.60;;;1.50;;
6590;SDS011;3331;47.978;7.662;2022-08-25T14:30:21;1.70;;;1.60;;
6590;SDS011;3331;47.978;7.662;2022-08-25T14:32:47;1.67;;;1.57;;
6590;SDS011;3331;47.978;7.662;2022-08-25T14:35:14;1.73;;;1.57;;
6590;SDS011;3331;47.978;7.662;2022-08-25T14:37:41;2.27;;;1.67;;
6590;SDS011;3331;47.978;7.662;2022-08-25T14:40:08;2.40;;;1.43;;
6590;SDS011;3331;47.978;7.662;2022-08-25T14:42:36;1.80;;;1.57;;
6590;SDS011;3331;47.978;7.662;2022-08-25T14:45:03;2.37;;;1.60;;
6590;SDS011;3331;47.978;7.662;2022-08-25T14:47:31;5.27;;;1.90;;
6590;SDS011;3331;47.978;7.662;2022-08-25T14:49:58;1.60;;;1.50;;
6590;SDS011;3331;47.978;7.662;2022-08-25T14:52:27;1.67;;;1.57;;
6590;SDS011;3331;47.978;7.662;2022-08-25T14:54:54;1.97;;;1.67;;
6590;SDS011;3331;47.978;7.662;2022-08-25T14:57:21;2.10;;;1.57;;
6590;SDS011;3331;47.978;7.662;2022-08-25T14:59:48;2.80;;;1.33;;
6590;SDS011;3331;47.978;7.662;2022-08-25T15:02:15;2.47;;;1.67;;
6590;SDS011;3331;47.978;7.662;2022-08-25T15:04:45;1.60;;;1.50;;
6590;SDS011;3331;47.978;7.662;2022-08-25T15:07:14;3.27;;;1.40;;
6590;SDS011;3331;47.978;7.662;2022-08-25T15:09:54;1.70;;;1.60;;
6590;SDS011;3331;47.978;7.662;2022-08-25T15:12:20;1.57;;;1.33;;
6590;SDS011;3331;47.978;7.662;2022-08-25T15:14:47;3.53;;;1.33;;
6590;SDS011;3331;47.978;7.662;2022-08-25T15:17:13;2.13;;;1.50;;
6590;SDS011;3331;47.978;7.662;2022-08-25T15:19:40;3.47;;;1.57;;
6590;SDS011;3331;47.978;7.662;2022-08-25T15:22:08;1.30;;;1.20;;
6590;SDS011;3331;47.978;7.662;2022-08-25T15:24:35;1.67;;;1.57;;
6590;SDS011;3331;47.978;7.662;2022-08-25T15:27:02;2.43;;;1.60;;
6590;SDS011;3331;47.978;7.662;2022-08-25T15:29:29;1.30;;;1.30;;
6590;SDS011;3331;47.978;7.662;2022-08-25T15:31:56;1.40;;;1.30;;
6590;SDS011;3331;47.978;7.662;2022-08-25T15:34:23;1.17;;;1.17;;
6590;SDS011;3331;47.978;7.662;2022-08-25T15:36:50;2.80;;;1.60;;
6590;SDS011;3331;47.978;7.662;2022-08-25T15:39:18;1.37;;;1.30;;
6590;SDS011;3331;47.978;7.662;2022-08-25T15:41:44;1.60;;;1.50;;
6590;SDS011;3331;47.978;7.662;2022-08-25T15:44:12;1.50;;;1.30;;
6590;SDS011;3331;47.978;7.662;2022-08-25T15:46:38;1.40;;;1.30;;
6590;SDS011;3331;47.978;7.662;2022-08-25T15:49:06;1.60;;;1.23;;
6590;SDS011;3331;47.978;7.662;2022-08-25T15:51:32;2.00;;;1.67;;
6590;SDS011;3331;47.978;7.662;2022-08-25T15:53:58;1.63;;;1.43;;
6590;SDS011;3331;47.978;7.662;2022-08-25T15:56:26;1.73;;;1.60;;
6590;SDS011;3331;47.978;7.662;2022-08-25T15:58:53;4.20;;;1.40;;
6590;SDS011;3331;47.978;7.662;2022-08-25T16:01:21;1.50;;;1.47;;
6590;SDS011;3331;47.978;7.662;2022-08-25T16:03:48;2.40;;;1.53;;
6590;SDS011;3331;47.978;7.662;2022-08-25T16:06:14;1.70;;;1.60;;
6590;SDS011;3331;47.978;7.662;2022-08-25T16:08:41;2.73;;;1.47;;
6590;SDS011;3331;47.978;7.662;2022-08-25T16:11:14;1.77;;;1.40;;
6590;SDS011;3331;47.978;7.662;2022-08-25T16:13:43;2.83;;;1.63;;
6590;SDS011;3331;47.978;7.662;2022-08-25T16:16:09;1.43;;;1.20;;
6590;SDS011;3331;47.978;7.662;2022-08-25T16:18:36;1.67;;;1.57;;
6590;SDS011;3331;47.978;7.662;2022-08-25T16:21:02;1.50;;;1.40;;
6590;SDS011;3331;47.978;7.662;2022-08-25T16:23:29;1.50;;;1.40;;
6590;SDS011;3331;47.978;7.662;2022-08-25T16:25:55;1.63;;;1.53;;
6590;SDS011;3331;47.978;7.662;2022-08-25T16:28:21;4.73;;;1.77;;
6590;SDS011;3331;47.978;7.662;2022-08-25T16:30:49;3.17;;;1.77;;
6590;SDS011;3331;47.978;7.662;2022-08-25T16:33:15;2.30;;;1.50;;
6590;SDS011;3331;47.978;7.662;2022-08-25T16:35:42;1.50;;;1.40;;
6590;SDS011;3331;47.978;7.662;2022-08-25T16:38:08;3.57;;;1.90;;
6590;SDS011;3331;47.978;7.662;2022-08-25T16:40:36;2.07;;;1.43;;
6590;SDS011;3331;47.978;7.662;2022-08-25T16:43:03;1.53;;;1.43;;
6590;SDS011;3331;47.978;7.662;2022-08-25T16:45:29;1.20;;;1.10;;
6590;SDS011;3331;47.978;7.662;2022-08-25T16:47:57;4.67;;;1.73;;
6590;SDS011;3331;47.978;7.662;2022-08-25T16:50:23;1.67;;;1.57;;
6590;SDS011;3331;47.978;7.662;2022-08-25T16:52:50;2.47;;;1.47;;
6590;SDS011;3331;47.978;7.662;2022-08-25T16:55:34;2.03;;;1.57;;
6590;SDS011;3331;47.978;7.662;2022-08-25T16:58:01;1.63;;;1.53;;
6590;SDS011;3331;47.978;7.662;2022-08-25T17:00:28;1.60;;;1.50;;
6590;SDS011;3331;47.978;7.662;2022-08-25T17:02:55;1.67;;;1.57;;
6590;SDS011;3331;47.978;7.662;2022-08-25T17:05:24;2.00;;;1.90;;
6590;SDS011;3331;47.978;7.662;2022-08-25T17:07:51;2.73;;;1.70;;
6590;SDS011;3331;47.978;7.662;2022-08-25T17:10:33;1.30;;;1.30;;
6590;SDS011;3331;47.978;7.662;2022-08-25T17:13:00;1.83;;;1.40;;
6590;SDS011;3331;47.978;7.662;2022-08-25T17:15:26;1.80;;;1.33;;
6590;SDS011;3331;47.978;7.662;2022-08-25T17:17:53;1.80;;;1.70;;
6590;SDS011;3331;47.978;7.662;2022-08-25T17:20:19;2.93;;;1.60;;
6590;SDS011;3331;47.978;7.662;2022-08-25T17:22:47;3.00;;;1.60;;
6590;SDS011;3331;47.978;7.662;2022-08-25T17:25:13;1.60;;;1.50;;
6590;SDS011;3331;47.978;7.662;2022-08-25T17:27:40;1.40;;;1.20;;
6590;SDS011;3331;47.978;7.662;2022-08-25T17:30:07;1.20;;;1.20;;
6590;SDS011;3331;47.978;7.662;2022-08-25T17:32:33;1.40;;;1.30;;
6590;SDS011;3331;47.978;7.662;2022-08-25T17:35:00;1.50;;;1.40;;
6590;SDS011;3331;47.978;7.662;2022-08-25T17:37:26;2.13;;;1.50;;
6590;SDS011;3331;47.978;7.662;2022-08-25T17:40:02;1.60;;;1.50;;
6590;SDS011;3331;47.978;7.662;2022-08-25T17:42:28;1.80;;;1.47;;
6590;SDS011;3331;47.978;7.662;2022-08-25T17:44:55;1.13;;;1.07;;
6590;SDS011;3331;47.978;7.662;2022-08-25T17:47:21;1.70;;;1.60;;
6590;SDS011;3331;47.978;7.662;2022-08-25T17:49:48;1.97;;;1.40;;
6590;SDS011;3331;47.978;7.662;2022-08-25T17:52:14;1.67;;;1.40;;
6590;SDS011;3331;47.978;7.662;2022-08-25T17:54:41;2.47;;;1.70;;
6590;SDS011;3331;47.978;7.662;2022-08-25T17:57:09;1.60;;;1.50;;
6590;SDS011;3331;47.978;7.662;2022-08-25T17:59:35;1.93;;;1.30;;
6590;SDS011;3331;47.978;7.662;2022-08-25T18:02:02;4.23;;;1.27;;
6590;SDS011;3331;47.978;7.662;2022-08-25T18:04:29;1.40;;;1.33;;
6590;SDS011;3331;47.978;7.662;2022-08-25T18:06:55;1.40;;;1.30;;
6590;SDS011;3331;47.978;7.662;2022-08-25T18:09:22;1.60;;;1.50;;
6590;SDS011;3331;47.978;7.662;2022-08-25T18:11:49;1.17;;;1.17;;
6590;SDS011;3331;47.978;7.662;2022-08-25T18:14:18;1.10;;;1.10;;
6590;SDS011;3331;47.978;7.662;2022-08-25T18:16:45;1.00;;;1.00;;
6590;SDS011;3331;47.978;7.662;2022-08-25T18:19:12;1.30;;;1.30;;
6590;SDS011;3331;47.978;7.662;2022-08-25T18:21:39;1.50;;;1.40;;
6590;SDS011;3331;47.978;7.662;2022-08-25T18:24:06;1.40;;;1.30;;
6590;SDS011;3331;47.978;7.662;2022-08-25T18:26:33;2.00;;;1.57;;
6590;SDS011;3331;47.978;7.662;2022-08-25T18:29:00;1.87;;;1.60;;
6590;SDS011;3331;47.978;7.662;2022-08-25T18:31:28;3.83;;;1.70;;
6590;SDS011;3331;47.978;7.662;2022-08-25T18:33:54;2.40;;;1.30;;
6590;SDS011;3331;47.978;7.662;2022-08-25T18:36:21;2.73;;;1.80;;
6590;SDS011;3331;47.978;7.662;2022-08-25T18:38:47;1.90;;;1.80;;
6590;SDS011;3331;47.978;7.662;2022-08-25T18:41:32;2.30;;;1.90;;
6590;SDS011;3331;47.978;7.662;2022-08-25T18:43:58;0.93;;;0.93;;
6590;SDS011;3331;47.978;7.662;2022-08-25T18:46:25;2.50;;;1.63;;
6590;SDS011;3331;47.978;7.662;2022-08-25T18:48:53;1.77;;;1.67;;
6590;SDS011;3331;47.978;7.662;2022-08-25T18:51:19;2.20;;;2.00;;
6590;SDS011;3331;47.978;7.662;2022-08-25T18:53:46;2.03;;;1.90;;
6590;SDS011;3331;47.978;7.662;2022-08-25T18:56:12;6.90;;;1.80;;
6590;SDS011;3331;47.978;7.662;2022-08-25T18:58:39;2.27;;;2.07;;
6590;SDS011;3331;47.978;7.662;2022-08-25T19:01:05;3.93;;;1.60;;
6590;SDS011;3331;47.978;7.662;2022-08-25T19:03:32;3.33;;;1.80;;
6590;SDS011;3331;47.978;7.662;2022-08-25T19:05:59;2.73;;;2.13;;
6590;SDS011;3331;47.978;7.662;2022-08-25T19:08:26;3.43;;;1.20;;
6590;SDS011;3331;47.978;7.662;2022-08-25T19:10:53;1.93;;;1.50;;
6590;SDS011;3331;47.978;7.662;2022-08-25T19:13:20;2.40;;;1.83;;
6590;SDS011;3331;47.978;7.662;2022-08-25T19:15:46;7.20;;;2.00;;
6590;SDS011;3331;47.978;7.662;2022-08-25T19:18:13;1.87;;;1.50;;
6590;SDS011;3331;47.978;7.662;2022-08-25T19:20:40;1.70;;;1.17;;
6590;SDS011;3331;47.978;7.662;2022-08-25T19:23:08;2.10;;;1.60;;
6590;SDS011;3331;47.978;7.662;2022-08-25T19:25:35;4.33;;;1.40;;
6590;SDS011;3331;47.978;7.662;2022-08-25T19:28:02;1.70;;;1.60;;
6590;SDS011;3331;47.978;7.662;2022-08-25T19:30:29;1.40;;;1.30;;
6590;SDS011;3331;47.978;7.662;2022-08-25T19:32:56;3.63;;;1.60;;
6590;SDS011;3331;47.978;7.662;2022-08-25T19:35:25;1.90;;;1.67;;
6590;SDS011;3331;47.978;7.662;2022-08-25T19:37:52;1.10;;;1.10;;
6590;SDS011;3331;47.978;7.662;2022-08-25T19:40:21;1.03;;;1.03;;
6590;SDS011;3331;47.978;7.662;2022-08-25T19:42:48;3.67;;;2.00;;
6590;SDS011;3331;47.978;7.662;2022-08-25T19:45:16;7.10;;;2.17;;
6590;SDS011;3331;47.978;7.662;2022-08-25T19:47:42;7.87;;;1.90;;
6590;SDS011;3331;47.978;7.662;2022-08-25T19:50:09;3.17;;;2.47;;
6590;SDS011;3331;47.978;7.662;2022-08-25T19:52:36;3.70;;;2.20;;
6590;SDS011;3331;47.978;7.662;2022-08-25T19:55:04;3.37;;;1.97;;
6590;SDS011;3331;47.978;7.662;2022-08-25T19:57:32;1.40;;;1.37;;
6590;SDS011;3331;47.978;7.662;2022-08-25T19:59:59;1.60;;;1.50;;
6590;SDS011;3331;47.978;7.662;2022-08-25T20:02:26;3.07;;;1.80;;
6590;SDS011;3331;47.978;7.662;2022-08-25T20:04:53;2.00;;;1.90;;
6590;SDS011;3331;47.978;7.662;2022-08-25T20:07:21;1.60;;;1.50;;
6590;SDS011;3331;47.978;7.662;2022-08-25T20:09:48;2.40;;;2.03;;
6590;SDS011;3331;47.978;7.662;2022-08-25T20:12:15;3.63;;;1.60;;
6590;SDS011;3331;47.978;7.662;2022-08-25T20:14:43;1.97;;;1.47;;
6590;SDS011;3331;47.978;7.662;2022-08-25T20:17:11;2.40;;;1.47;;
6590;SDS011;3331;47.978;7.662;2022-08-25T20:19:37;3.77;;;1.73;;
6590;SDS011;3331;47.978;7.662;2022-08-25T20:22:03;3.27;;;1.57;;
6590;SDS011;3331;47.978;7.662;2022-08-25T20:24:30;5.33;;;1.60;;
6590;SDS011;3331;47.978;7.662;2022-08-25T20:27:14;1.67;;;1.57;;
6590;SDS011;3331;47.978;7.662;2022-08-25T20:29:41;1.73;;;1.60;;
6590;SDS011;3331;47.978;7.662;2022-08-25T20:32:08;1.60;;;1.50;;
6590;SDS011;3331;47.978;7.662;2022-08-25T20:34:35;2.03;;;1.10;;
6590;SDS011;3331;47.978;7.662;2022-08-25T20:37:02;2.57;;;1.70;;
6590;SDS011;3331;47.978;7.662;2022-08-25T20:39:28;1.67;;;1.43;;
6590;SDS011;3331;47.978;7.662;2022-08-25T20:41:55;1.90;;;1.70;;
6590;SDS011;3331;47.978;7.662;2022-08-25T20:44:21;3.37;;;2.10;;
6590;SDS011;3331;47.978;7.662;2022-08-25T20:46:48;2.30;;;1.50;;
6590;SDS011;3331;47.978;7.662;2022-08-25T20:49:16;3.93;;;1.80;;
6590;SDS011;3331;47.978;7.662;2022-08-25T20:51:44;2.17;;;1.80;;
6590;SDS011;3331;47.978;7.662;2022-08-25T20:54:12;2.73;;;1.63;;
6590;SDS011;3331;47.978;7.662;2022-08-25T20:56:39;5.47;;;1.87;;
6590;SDS011;3331;47.978;7.662;2022-08-25T20:59:05;3.90;;;1.90;;
6590;SDS011;3331;47.978;7.662;2022-08-25T21:01:34;6.27;;;2.47;;
6590;SDS011;3331;47.978;7.662;2022-08-25T21:04:05;3.33;;;2.23;;
6590;SDS011;3331;47.978;7.662;2022-08-25T21:06:33;2.60;;;2.40;;
6590;SDS011;3331;47.978;7.662;2022-08-25T21:09:00;3.23;;;1.97;;
6590;SDS011;3331;47.978;7.662;2022-08-25T21:11:26;6.83;;;1.93;;
6590;SDS011;3331;47.978;7.662;2022-08-25T21:13:54;4.57;;;2.20;;
6590;SDS011;3331;47.978;7.662;2022-08-25T21:16:21;2.27;;;1.80;;
6590;SDS011;3331;47.978;7.662;2022-08-25T21:18:48;2.00;;;1.90;;
6590;SDS011;3331;47.978;7.662;2022-08-25T21:21:14;4.60;;;1.80;;
6590;SDS011;3331;47.978;7.662;2022-08-25T21:23:43;1.90;;;1.80;;
6590;SDS011;3331;47.978;7.662;2022-08-25T21:26:12;3.30;;;2.00;;
6590;SDS011;3331;47.978;7.662;2022-08-25T21:28:39;2.00;;;1.80;;
6590;SDS011;3331;47.978;7.662;2022-08-25T21:31:05;2.53;;;2.10;;
6590;SDS011;3331;47.978;7.662;2022-08-25T21:33:32;3.40;;;2.43;;
6590;SDS011;3331;47.978;7.662;2022-08-25T21:35:58;5.60;;;2.20;;
6590;SDS011;3331;47.978;7.662;2022-08-25T21:38:25;3.50;;;2.40;;
6590;SDS011;3331;47.978;7.662;2022-08-25T21:40:54;2.50;;;2.30;;
6590;SDS011;3331;47.978;7.662;2022-08-25T21:43:21;3.90;;;2.10;;
6590;SDS011;3331;47.978;7.662;2022-08-25T21:45:47;2.43;;;2.00;;
6590;SDS011;3331;47.978;7.662;2022-08-25T21:48:14;3.10;;;2.00;;
6590;SDS011;3331;47.978;7.662;2022-08-25T21:50:40;2.73;;;2.10;;
6590;SDS011;3331;47.978;7.662;2022-08-25T21:53:07;4.67;;;2.10;;
6590;SDS011;3331;47.978;7.662;2022-08-25T21:55:35;2.93;;;1.90;;
6590;SDS011;3331;47.978;7.662;2022-08-25T21:58:03;5.47;;;2.57;;
6590;SDS011;3331;47.978;7.662;2022-08-25T22:00:30;2.40;;;1.40;;
6590;SDS011;3331;47.978;7.662;2022-08-25T22:02:56;4.37;;;1.97;;
6590;SDS011;3331;47.978;7.662;2022-08-25T22:05:24;3.23;;;2.20;;
6590;SDS011;3331;47.978;7.662;2022-08-25T22:07:50;3.57;;;1.97;;
6590;SDS011;3331;47.978;7.662;2022-08-25T22:10:17;3.57;;;2.10;;
6590;SDS011;3331;47.978;7.662;2022-08-25T22:12:43;4.87;;;2.17;;
6590;SDS011;3331;47.978;7.662;2022-08-25T22:15:11;3.60;;;2.30;;
6590;SDS011;3331;47.978;7.662;2022-08-25T22:17:39;2.93;;;2.03;;
6590;SDS011;3331;47.978;7.662;2022-08-25T22:20:06;2.43;;;2.23;;
6590;SDS011;3331;47.978;7.662;2022-08-25T22:22:33;3.50;;;2.10;;
6590;SDS011;3331;47.978;7.662;2022-08-25T22:24:59;2.10;;;2.00;;
6590;SDS011;3331;47.978;7.662;2022-08-25T22:27:26;2.10;;;2.00;;
6590;SDS011;3331;47.978;7.662;2022-08-25T22:29:54;1.97;;;1.83;;
6590;SDS011;3331;47.978;7.662;2022-08-25T22:32:21;2.97;;;2.17;;
6590;SDS011;3331;47.978;7.662;2022-08-25T22:34:48;3.43;;;2.07;;
6590;SDS011;3331;47.978;7.662;2022-08-25T22:37:14;4.60;;;2.20;;
6590;SDS011;3331;47.978;7.662;2022-08-25T22:39:42;4.53;;;2.23;;
6590;SDS011;3331;47.978;7.662;2022-08-25T22:42:09;3.33;;;2.40;;
6590;SDS011;3331;47.978;7.662;2022-08-25T22:44:36;2.77;;;2.43;;
6590;SDS011;3331;47.978;7.662;2022-08-25T22:47:03;5.07;;;2.30;;
6590;SDS011;3331;47.978;7.662;2022-08-25T22:49:31;6.40;;;2.57;;
6590;SDS011;3331;47.978;7.662;2022-08-25T22:51:59;4.70;;;2.33;;
6590;SDS011;3331;47.978;7.662;2022-08-25T22:54:25;7.17;;;2.00;;
6590;SDS011;3331;47.978;7.662;2022-08-25T22:56:52;3.10;;;1.97;;
6590;SDS011;3331;47.978;7.662;2022-08-25T22:59:19;2.40;;;2.20;;
6590;SDS011;3331;47.978;7.662;2022-08-25T23:01:46;2.57;;;2.30;;
6590;SDS011;3331;47.978;7.662;2022-08-25T23:04:12;6.67;;;2.30;;
6590;SDS011;3331;47.978;7.662;2022-08-25T23:06:40;2.73;;;2.20;;
6590;SDS011;3331;47.978;7.662;2022-08-25T23:09:07;4.70;;;2.80;;
6590;SDS011;3331;47.978;7.662;2022-08-25T23:11:34;2.57;;;2.37;;
6590;SDS011;3331;47.978;7.662;2022-08-25T23:14:01;5.33;;;2.30;;
6590;SDS011;3331;47.978;7.662;2022-08-25T23:16:29;2.27;;;2.07;;
6590;SDS011;3331;47.978;7.662;2022-08-25T23:18:56;3.70;;;2.27;;
6590;SDS011;3331;47.978;7.662;2022-08-25T23:21:22;2.83;;;2.53;;
6590;SDS011;3331;47.978;7.662;2022-08-25T23:24:08;3.67;;;2.37;;
6590;SDS011;3331;47.978;7.662;2022-08-25T23:26:34;2.33;;;2.23;;
6590;SDS011;3331;47.978;7.662;2022-08-25T23:29:01;3.97;;;2.40;;
6590;SDS011;3331;47.978;7.662;2022-08-25T23:31:28;5.80;;;2.60;;
6590;SDS011;3331;47.978;7.662;2022-08-25T23:33:55;3.07;;;2.73;;
6590;SDS011;3331;47.978;7.662;2022-08-25T23:36:21;6.60;;;2.43;;
6590;SDS011;3331;47.978;7.662;2022-08-25T23:38:48;4.13;;;2.37;;
6590;SDS011;3331;47.978;7.662;2022-08-25T23:41:17;2.57;;;2.37;;
6590;SDS011;3331;47.978;7.662;2022-08-25T23:43:44;3.23;;;2.00;;
6590;SDS011;3331;47.978;7.662;2022-08-25T23:46:12;2.57;;;2.27;;
6590;SDS011;3331;47.978;7.662;2022-08-25T23:48:38;3.70;;;2.77;;
6590;SDS011;3331;47.978;7.662;2022-08-25T23:51:05;2.93;;;2.70;;
6590;SDS011;3331;47.978;7.662;2022-08-25T23:53:31;3.50;;;2.40;;
6590;SDS011;3331;47.978;7.662;2022-08-25T23:55:58;4.50;;;2.50;;
6590;SDS011;3331;47.978;7.662;2022-08-25T23:58:25;2.23;;;1.73;;
